createdAt,value
2023-02-11T00:01:23.386Z,-3276.30
2023-02-11T00:03:51.539Z,-3276.30
2023-02-11T00:06:20.031Z,-3276.40
2023-02-11T00:08:48.281Z,-3276.40
2023-02-11T00:11:18.486Z,-3276.40
2023-02-11T00:13:47.974Z,-3276.40
2023-02-11T00:16:19.562Z,-3276.30
2023-02-11T00:18:48.335Z,-3276.30
2023-02-11T00:21:19.473Z,-3276.30
2023-02-11T00:23:48.020Z,-3276.30
2023-02-11T00:26:18.445Z,-3276.20
2023-02-11T00:28:47.256Z,-3276.20
2023-02-11T00:31:18.639Z,-3276.20
2023-02-11T00:33:47.140Z,-3276.10
2023-02-11T00:36:17.591Z,-3276.10
2023-02-11T00:38:46.354Z,-3276.10
2023-02-11T00:41:15.760Z,-3276.10
2023-02-11T00:43:44.282Z,-3276.10
2023-02-11T00:46:13.017Z,-3276.10
2023-02-11T00:48:42.774Z,-3275.90
2023-02-11T00:51:11.136Z,-3276.00
2023-02-11T00:53:39.663Z,-3276.00
2023-02-11T00:56:08.727Z,-3276.00
2023-02-11T00:58:36.886Z,-3275.90
2023-02-11T01:01:06.316Z,-3275.80
2023-02-11T01:03:34.676Z,-3275.80
2023-02-11T01:06:04.759Z,-3275.70
2023-02-11T01:08:32.896Z,-3275.70
2023-02-11T01:11:03.109Z,-3275.70
2023-02-11T01:13:33.099Z,-3275.80
2023-02-11T01:16:01.665Z,-3275.80
2023-02-11T01:18:30.422Z,-3275.90
2023-02-11T01:20:58.646Z,-3275.90
2023-02-11T01:23:28.283Z,-3275.80
2023-02-11T01:25:56.448Z,-3275.80
2023-02-11T01:28:27.070Z,-3275.80
2023-02-11T01:30:55.637Z,-3275.90
2023-02-11T01:33:24.667Z,-3276.00
2023-02-11T01:35:53.362Z,-3276.00
2023-02-11T01:38:24.242Z,-3276.00
2023-02-11T01:40:56.656Z,-3276.00
2023-02-11T01:43:26.130Z,-3276.00
2023-02-11T01:46:18.698Z,-3275.90
2023-02-11T01:48:50.221Z,-3276.00
2023-02-11T01:51:23.043Z,-3276.00
2023-02-11T01:54:09.597Z,-3275.90
2023-02-11T01:57:00.753Z,-3275.80
2023-02-11T01:59:33.333Z,-3275.80
2023-02-11T02:02:06.153Z,-3275.80
2023-02-11T02:04:39.787Z,-3275.70
2023-02-11T02:07:12.270Z,-3275.70
2023-02-11T02:09:45.686Z,-3275.70
2023-02-11T02:12:15.216Z,-3275.60
2023-02-11T02:14:43.817Z,-3275.60
2023-02-11T02:17:24.678Z,-3275.70
2023-02-11T02:20:23.868Z,-3275.70
2023-02-11T02:23:21.733Z,-3275.60
2023-02-11T02:26:19.826Z,-3275.50
2023-02-11T02:29:27.231Z,-3275.50
2023-02-11T02:32:23.594Z,-3275.50
2023-02-11T02:34:58.084Z,-3275.50
2023-02-11T02:37:31.979Z,-3275.50
2023-02-11T02:40:02.488Z,-3275.50
2023-02-11T02:42:31.624Z,-3275.60
2023-02-11T02:44:59.857Z,-3275.60
2023-02-11T02:47:29.628Z,-3275.50
2023-02-11T02:49:57.893Z,-3275.50
2023-02-11T02:52:35.378Z,-3275.50
2023-02-11T02:55:16.932Z,-3275.60
2023-02-11T02:58:04.479Z,-3275.60
2023-02-11T03:00:41.902Z,-3275.70
2023-02-11T03:03:21.495Z,-3275.60
2023-02-11T03:05:58.488Z,-3275.60
2023-02-11T03:08:35.732Z,-3275.60
2023-02-11T03:11:16.674Z,-3275.50
2023-02-11T03:13:57.060Z,-3275.60
2023-02-11T03:16:38.597Z,-3275.70
2023-02-11T03:19:16.441Z,-3275.70
2023-02-11T03:21:49.774Z,-3275.60
2023-02-11T03:24:30.782Z,-3275.50
2023-02-11T03:27:09.238Z,-3275.50
2023-02-11T03:29:42.870Z,-3275.30
2023-02-11T03:32:22.255Z,-3275.30
2023-02-11T03:35:03.977Z,-3275.30
2023-02-11T03:37:39.482Z,-3275.30
2023-02-11T03:40:13.748Z,-3275.20
2023-02-11T03:42:47.351Z,-3275.20
2023-02-11T03:45:23.248Z,-3275.30
2023-02-11T03:48:00.286Z,-3275.30
2023-02-11T03:50:37.187Z,-3275.40
2023-02-11T03:53:08.331Z,-3275.40
2023-02-11T03:55:40.886Z,-3275.40
2023-02-11T03:58:10.199Z,-3275.40
2023-02-11T04:00:42.156Z,-3275.50
2023-02-11T04:03:11.505Z,-3275.40
2023-02-11T04:05:43.883Z,-3275.50
2023-02-11T04:08:14.624Z,-3275.50
2023-02-11T04:10:53.746Z,-3275.60
2023-02-11T04:13:24.076Z,-3275.60
2023-02-11T04:15:54.693Z,-3275.60
2023-02-11T04:18:27.180Z,-3275.70
2023-02-11T04:20:56.945Z,-3275.50
2023-02-11T04:23:26.436Z,-3275.40
2023-02-11T04:25:59.412Z,-3275.40
2023-02-11T04:28:29.636Z,-3275.50
2023-02-11T04:31:00.755Z,-3275.50
2023-02-11T04:33:39.208Z,-3275.60
2023-02-11T04:36:09.533Z,-3275.50
2023-02-11T04:38:41.318Z,-3275.50
2023-02-11T04:41:09.514Z,-3275.50
2023-02-11T04:43:38.966Z,-3275.50
2023-02-11T04:46:07.355Z,-3275.60
2023-02-11T04:48:36.677Z,-3275.60
2023-02-11T04:51:05.661Z,-3275.50
2023-02-11T04:53:37.593Z,-3275.40
2023-02-11T04:56:06.138Z,-3275.40
2023-02-11T04:58:34.453Z,-3275.50
2023-02-11T05:01:09.297Z,-3275.50
2023-02-11T05:03:41.856Z,-3275.50
2023-02-11T05:06:13.990Z,-3275.60
2023-02-11T05:08:44.799Z,-3275.50
2023-02-11T05:11:18.107Z,-3275.50
2023-02-11T05:13:46.581Z,-3275.50
2023-02-11T05:16:18.589Z,-3275.40
2023-02-11T05:18:47.029Z,-3275.40
2023-02-11T05:21:18.490Z,-3275.40
2023-02-11T05:23:48.167Z,-3275.30
2023-02-11T05:26:18.131Z,-3275.30
2023-02-11T05:28:46.881Z,-3275.20
2023-02-11T05:31:16.822Z,-3275.00
2023-02-11T05:33:46.410Z,-3274.90
2023-02-11T05:36:16.815Z,-3274.90
2023-02-11T05:38:47.779Z,-3275.00
2023-02-11T05:41:16.964Z,-3275.20
2023-02-11T05:43:46.251Z,-3275.30
2023-02-11T05:46:16.862Z,-3275.40
2023-02-11T05:48:46.407Z,-3275.50
2023-02-11T05:51:17.482Z,-3275.70
2023-02-11T05:53:48.435Z,-3275.60
2023-02-11T05:56:25.572Z,-3275.60
2023-02-11T05:58:53.670Z,-3275.50
2023-02-11T06:01:21.830Z,-3275.70
2023-02-11T06:03:51.489Z,-3275.70
2023-02-11T06:06:19.700Z,-3275.70
2023-02-11T06:08:49.234Z,-3275.70
2023-02-11T06:11:17.682Z,-3275.80
2023-02-11T06:13:45.920Z,-3275.80
2023-02-11T06:16:14.259Z,-3275.80
2023-02-11T06:18:45.540Z,-3275.90
2023-02-11T06:21:14.144Z,-3275.90
2023-02-11T06:23:43.648Z,-3275.90
2023-02-11T06:26:19.951Z,-3275.90
2023-02-11T06:28:48.300Z,-3275.80
2023-02-11T06:31:16.871Z,-3275.70
2023-02-11T06:33:45.490Z,-3275.60
2023-02-11T06:36:16.667Z,-3275.50
2023-02-11T06:38:47.419Z,-3275.60
2023-02-11T06:41:21.225Z,-3275.70
2023-02-11T06:43:50.153Z,-3275.70
2023-02-11T06:46:18.369Z,-3275.60
2023-02-11T06:48:46.643Z,-3275.50
2023-02-11T06:51:16.335Z,-3275.50
2023-02-11T06:53:47.136Z,-3275.70
2023-02-11T06:56:22.785Z,-3275.80
2023-02-11T06:58:56.303Z,-3275.80
2023-02-11T07:01:26.026Z,-3275.90
2023-02-11T07:03:55.461Z,-3276.00
2023-02-11T07:06:27.268Z,-3276.00
2023-02-11T07:08:57.582Z,-3276.10
2023-02-11T07:11:29.905Z,-3276.00
2023-02-11T07:14:02.077Z,-3276.10
2023-02-11T07:16:31.966Z,-3276.10
2023-02-11T07:19:02.788Z,-3276.10
2023-02-11T07:21:32.182Z,-3276.20
2023-02-11T07:24:00.752Z,-3276.30
2023-02-11T07:26:30.301Z,-3276.50
2023-02-11T07:29:00.239Z,-3276.70
2023-02-11T07:31:32.576Z,-3276.60
2023-02-11T07:34:03.509Z,0.00
2023-02-11T07:36:40.916Z,0.10
2023-02-11T07:39:09.253Z,0.20
2023-02-11T07:41:39.761Z,0.30
2023-02-11T07:44:08.709Z,0.30
2023-02-11T07:46:45.444Z,0.40
2023-02-11T07:49:15.885Z,0.40
2023-02-11T07:51:45.974Z,0.40
2023-02-11T07:54:15.454Z,0.40
2023-02-11T07:56:45.073Z,0.50
2023-02-11T07:59:13.970Z,0.60
2023-02-11T08:01:44.903Z,0.60
2023-02-11T08:04:14.060Z,0.60
2023-02-11T08:06:47.198Z,0.80
2023-02-11T08:09:19.648Z,1.00
2023-02-11T08:11:49.176Z,1.40
2023-02-11T08:14:17.338Z,1.50
2023-02-11T08:16:45.569Z,1.70
2023-02-11T08:19:17.233Z,1.70
2023-02-11T08:21:48.239Z,1.60
2023-02-11T08:24:20.537Z,1.60
2023-02-11T08:26:50.211Z,1.80
2023-02-11T08:29:18.938Z,1.90
2023-02-11T08:31:49.321Z,1.90
2023-02-11T08:34:19.542Z,2.10
2023-02-11T08:36:49.614Z,2.00
2023-02-11T08:39:22.970Z,2.00
2023-02-11T08:42:07.379Z,1.90
2023-02-11T08:44:37.030Z,2.00
2023-02-11T08:47:05.252Z,2.00
2023-02-11T08:49:34.115Z,1.90
2023-02-11T08:52:05.151Z,2.00
2023-02-11T08:54:34.677Z,2.10
2023-02-11T08:57:04.091Z,2.20
2023-02-11T08:59:33.567Z,2.20
2023-02-11T09:02:01.989Z,2.30
2023-02-11T09:04:30.109Z,2.50
2023-02-11T09:06:59.514Z,2.70
2023-02-11T09:09:29.169Z,2.90
2023-02-11T09:12:01.114Z,3.00
2023-02-11T09:14:31.453Z,3.10
2023-02-11T09:17:03.562Z,3.10
2023-02-11T09:19:31.779Z,3.20
2023-02-11T09:22:04.976Z,3.20
2023-02-11T09:24:33.116Z,3.40
2023-02-11T09:27:02.057Z,3.40
2023-02-11T09:29:31.267Z,3.60
2023-02-11T09:32:02.280Z,3.80
2023-02-11T09:34:31.890Z,3.80
2023-02-11T09:37:00.172Z,4.00
2023-02-11T09:39:29.322Z,4.20
2023-02-11T09:42:34.541Z,4.40
2023-02-11T09:45:07.324Z,4.50
2023-02-11T09:47:47.027Z,4.50
2023-02-11T09:50:19.732Z,4.50
2023-02-11T09:52:55.614Z,4.70
2023-02-11T09:55:27.817Z,4.60
2023-02-11T09:57:56.741Z,4.80
2023-02-11T10:00:29.513Z,4.90
2023-02-11T10:03:24.998Z,4.90
2023-02-11T10:06:20.452Z,5.00
2023-02-11T10:09:00.940Z,5.10
2023-02-11T10:11:38.895Z,5.10
2023-02-11T10:14:22.735Z,5.10
2023-02-11T10:17:04.587Z,5.30
2023-02-11T10:20:20.693Z,5.40
2023-02-11T10:22:53.517Z,5.60
2023-02-11T10:25:30.106Z,5.60
2023-02-11T10:28:15.875Z,5.50
2023-02-11T10:30:59.510Z,5.70
2023-02-11T10:33:33.512Z,5.80
2023-02-11T10:36:21.454Z,5.90
2023-02-11T10:38:58.278Z,6.00
2023-02-11T10:41:39.666Z,6.20
2023-02-11T10:44:09.190Z,6.30
2023-02-11T10:46:50.490Z,6.30
2023-02-11T10:49:45.955Z,6.30
2023-02-11T10:52:27.206Z,6.30
2023-02-11T10:58:04.921Z,6.50
2023-02-11T11:00:38.883Z,6.60
2023-02-11T11:03:19.276Z,6.70
2023-02-11T11:05:52.083Z,6.70
2023-02-11T11:08:43.676Z,6.80
2023-02-11T11:11:13.525Z,7.10
2023-02-11T11:13:43.667Z,7.30
2023-02-11T11:16:24.018Z,7.40
2023-02-11T11:19:01.363Z,7.60
2023-02-11T11:21:53.652Z,7.70
2023-02-11T11:24:29.455Z,7.80
2023-02-11T11:27:00.924Z,7.60
2023-02-11T11:29:35.390Z,7.70
2023-02-11T11:32:06.954Z,7.80
2023-02-11T11:34:38.307Z,7.80
2023-02-11T11:37:13.769Z,7.90
2023-02-11T11:39:43.413Z,7.90
2023-02-11T11:42:27.501Z,7.80
2023-02-11T11:45:00.506Z,8.00
2023-02-11T11:47:41.054Z,8.20
2023-02-11T11:50:27.920Z,8.40
2023-02-11T11:53:04.147Z,8.70
2023-02-11T11:55:40.047Z,8.80
2023-02-11T11:58:14.706Z,8.80
2023-02-11T12:00:52.082Z,8.90
2023-02-11T12:03:50.892Z,8.80
2023-02-11T12:06:39.083Z,8.70
2023-02-11T12:09:15.752Z,8.80
2023-02-11T12:12:02.894Z,8.90
2023-02-11T12:14:38.291Z,8.90
2023-02-11T12:17:13.822Z,8.90
2023-02-11T12:20:14.362Z,8.90
2023-02-11T12:22:56.796Z,8.90
2023-02-11T12:25:29.851Z,8.90
2023-02-11T12:28:11.698Z,8.80
2023-02-11T12:30:55.854Z,9.00
2023-02-11T12:33:45.244Z,8.90
2023-02-11T12:36:26.048Z,8.80
2023-02-11T12:39:07.729Z,8.80
2023-02-11T12:42:08.299Z,9.30
2023-02-11T12:44:47.041Z,9.30
2023-02-11T12:47:26.527Z,9.60
2023-02-11T12:50:09.535Z,9.90
2023-02-11T12:52:53.844Z,10.00
2023-02-11T12:55:25.715Z,10.10
2023-02-11T12:57:57.393Z,9.80
2023-02-11T13:00:32.629Z,9.70
2023-02-11T13:03:06.997Z,9.80
2023-02-11T13:05:39.276Z,9.80
2023-02-11T13:08:14.641Z,9.80
2023-02-11T13:10:47.991Z,10.00
2023-02-11T13:13:21.819Z,10.10
2023-02-11T13:15:56.103Z,10.50
2023-02-11T13:18:41.512Z,10.80
2023-02-11T13:21:35.019Z,10.60
2023-02-11T13:24:10.830Z,10.20
2023-02-11T13:26:47.321Z,10.00
2023-02-11T13:29:27.566Z,10.10
2023-02-11T13:32:07.068Z,10.50
2023-02-11T13:35:00.111Z,10.80
2023-02-11T13:37:34.040Z,11.20
2023-02-11T13:40:04.729Z,11.10
2023-02-11T13:42:36.109Z,11.30
2023-02-11T13:45:04.338Z,11.10
2023-02-11T13:47:36.116Z,11.20
2023-02-11T13:50:07.286Z,11.00
2023-02-11T13:52:38.709Z,10.90
2023-02-11T13:55:15.953Z,11.10
2023-02-11T13:57:44.270Z,11.20
2023-02-11T14:00:48.967Z,11.10
2023-02-11T14:03:49.330Z,11.20
2023-02-11T14:06:41.845Z,11.30
2023-02-11T14:09:35.153Z,11.30
2023-02-11T14:12:24.548Z,11.90
2023-02-11T14:15:26.313Z,11.90
2023-02-11T14:17:54.570Z,11.90
2023-02-11T14:20:39.102Z,12.20
2023-02-11T14:23:08.156Z,12.20
2023-02-11T14:25:37.184Z,12.00
2023-02-11T14:28:12.935Z,12.10
2023-02-11T14:30:48.082Z,12.10
2023-02-11T14:33:58.274Z,12.30
2023-02-11T14:37:04.077Z,12.50
2023-02-11T14:39:49.574Z,12.30
2023-02-11T14:42:21.573Z,12.20
2023-02-11T14:44:52.195Z,12.10
2023-02-11T14:47:22.133Z,12.10
2023-02-11T14:49:51.109Z,12.00
2023-02-11T14:52:28.761Z,11.90
2023-02-11T14:55:07.276Z,12.10
2023-02-11T14:57:37.647Z,12.30
2023-02-11T15:00:20.650Z,12.50
2023-02-11T15:02:48.957Z,12.50
2023-02-11T15:05:19.407Z,12.30
2023-02-11T15:07:52.642Z,11.90
2023-02-11T15:10:27.741Z,12.00
2023-02-11T15:12:56.665Z,12.10
2023-02-11T15:15:24.935Z,12.00
2023-02-11T15:17:53.503Z,11.90
2023-02-11T15:20:25.813Z,12.20
2023-02-11T15:22:58.639Z,11.90
2023-02-11T15:25:28.099Z,11.30
2023-02-11T15:27:58.277Z,10.90
2023-02-11T15:30:29.596Z,10.70
2023-02-11T15:33:00.236Z,10.50
2023-02-11T15:35:31.158Z,10.30
2023-02-11T15:38:04.633Z,10.10
2023-02-11T15:40:34.632Z,9.90
2023-02-11T15:43:04.403Z,9.60
2023-02-11T15:45:34.447Z,9.50
2023-02-11T15:48:10.854Z,9.40
2023-02-11T15:50:40.942Z,9.30
2023-02-11T15:53:25.910Z,9.00
2023-02-11T15:55:58.639Z,8.60
2023-02-11T15:58:26.994Z,8.50
2023-02-11T16:00:59.806Z,8.20
2023-02-11T16:03:33.011Z,8.00
2023-02-11T16:06:16.791Z,7.80
2023-02-11T16:08:58.468Z,7.70
2023-02-11T16:11:30.430Z,7.40
2023-02-11T16:14:05.163Z,7.30
2023-02-11T16:16:35.908Z,7.10
2023-02-11T16:19:06.613Z,7.00
2023-02-11T16:21:42.514Z,7.00
2023-02-11T16:24:21.552Z,6.90
2023-02-11T16:26:52.478Z,6.80
2023-02-11T16:29:26.055Z,6.60
2023-02-11T16:31:56.244Z,6.40
2023-02-11T16:34:25.726Z,6.30
2023-02-11T16:36:54.196Z,6.10
2023-02-11T16:39:24.492Z,6.00
2023-02-11T16:41:53.360Z,5.90
2023-02-11T16:44:21.558Z,5.60
2023-02-11T16:46:49.935Z,5.50
2023-02-11T16:49:22.399Z,5.50
2023-02-11T16:51:52.597Z,5.40
2023-02-11T16:54:21.595Z,5.20
2023-02-11T16:56:51.433Z,5.10
2023-02-11T16:59:19.637Z,5.10
2023-02-11T17:01:49.326Z,5.00
2023-02-11T17:04:21.122Z,4.90
2023-02-11T17:06:49.352Z,4.90
2023-02-11T17:09:20.884Z,4.80
2023-02-11T17:11:51.102Z,4.50
2023-02-11T17:14:19.447Z,4.50
2023-02-11T17:16:50.058Z,4.40
2023-02-11T17:19:22.607Z,4.40
2023-02-11T17:21:53.813Z,4.40
2023-02-11T17:24:22.915Z,4.40
2023-02-11T17:26:52.542Z,4.30
2023-02-11T17:29:22.778Z,4.20
2023-02-11T17:31:51.684Z,4.10
2023-02-11T17:34:20.712Z,4.00
2023-02-11T17:36:48.919Z,3.90
2023-02-11T17:39:17.213Z,3.90
2023-02-11T17:41:45.382Z,3.80
2023-02-11T17:44:16.463Z,3.80
2023-02-11T17:46:44.940Z,3.70
2023-02-11T17:49:13.638Z,3.50
2023-02-11T17:51:42.006Z,3.50
2023-02-11T17:54:13.505Z,3.50
2023-02-11T17:56:42.579Z,3.50
2023-02-11T17:59:12.031Z,3.40
2023-02-11T18:01:43.403Z,3.40
2023-02-11T18:04:15.630Z,3.40
2023-02-11T18:06:44.284Z,3.40
2023-02-11T18:09:12.879Z,3.40
2023-02-11T18:11:42.025Z,3.40
2023-02-11T18:14:11.230Z,3.40
2023-02-11T18:16:43.624Z,3.40
2023-02-11T18:19:12.696Z,3.40
2023-02-11T18:21:41.451Z,3.40
2023-02-11T18:24:09.846Z,3.40
2023-02-11T18:26:38.103Z,3.30
2023-02-11T18:29:07.093Z,3.20
2023-02-11T18:31:36.411Z,3.10
2023-02-11T18:34:07.813Z,3.10
2023-02-11T18:36:36.358Z,3.10
2023-02-11T18:39:05.096Z,3.00
2023-02-11T18:41:33.454Z,2.90
2023-02-11T18:44:03.299Z,2.80
2023-02-11T18:46:32.018Z,2.70
2023-02-11T18:49:00.174Z,2.60
2023-02-11T18:51:31.894Z,2.60
2023-02-11T18:54:01.323Z,2.50
2023-02-11T18:56:29.760Z,2.40
2023-02-11T18:59:01.207Z,2.40
2023-02-11T19:01:31.228Z,2.40
2023-02-11T19:04:02.934Z,2.40
2023-02-11T19:06:34.770Z,2.40
2023-02-11T19:09:05.873Z,2.40
2023-02-11T19:11:54.351Z,2.40
2023-02-11T19:14:24.588Z,2.30
2023-02-11T19:16:54.666Z,2.30
2023-02-11T19:19:23.472Z,2.30
2023-02-11T19:21:53.084Z,2.30
2023-02-11T19:24:21.409Z,2.20
2023-02-11T19:26:50.736Z,2.10
2023-02-11T19:29:19.296Z,2.00
2023-02-11T19:31:47.739Z,2.00
2023-02-11T19:34:19.930Z,2.10
2023-02-11T19:36:48.688Z,2.10
2023-02-11T19:39:18.547Z,2.00
2023-02-11T19:41:46.805Z,2.00
2023-02-11T19:44:16.168Z,2.00
2023-02-11T19:46:44.483Z,2.00
2023-02-11T19:49:15.440Z,2.00
2023-02-11T19:51:43.641Z,1.90
2023-02-11T19:54:11.810Z,2.00
2023-02-11T19:56:41.314Z,1.90
2023-02-11T19:59:09.440Z,1.90
2023-02-11T20:01:37.954Z,1.90
2023-02-11T20:04:06.807Z,1.90
2023-02-11T20:06:36.847Z,1.90
2023-02-11T20:09:07.317Z,1.90
2023-02-11T20:11:36.903Z,1.90
2023-02-11T20:14:08.445Z,1.80
2023-02-11T20:16:47.505Z,1.80
2023-02-11T20:19:18.707Z,1.80
2023-02-11T20:21:48.465Z,1.80
2023-02-11T20:24:17.443Z,1.80
2023-02-11T20:26:48.582Z,1.80
2023-02-11T20:29:19.401Z,1.80
2023-02-11T20:31:47.792Z,1.80
2023-02-11T20:34:17.661Z,1.80
2023-02-11T20:36:51.720Z,1.80
2023-02-11T20:39:21.970Z,1.70
2023-02-11T20:41:50.931Z,1.70
2023-02-11T20:44:21.792Z,1.60
2023-02-11T20:46:50.380Z,1.60
2023-02-11T20:49:20.783Z,1.60
2023-02-11T20:51:48.957Z,1.60
2023-02-11T20:54:19.616Z,1.60
2023-02-11T20:56:50.728Z,1.60
2023-02-11T20:59:21.050Z,1.50
2023-02-11T21:01:57.395Z,1.50
2023-02-11T21:04:29.866Z,1.40
2023-02-11T21:07:00.213Z,1.40
2023-02-11T21:09:33.148Z,1.40
2023-02-11T21:12:02.928Z,1.40
2023-02-11T21:14:34.593Z,1.40
2023-02-11T21:17:02.754Z,1.40
2023-02-11T21:19:30.946Z,1.40
2023-02-11T21:22:00.739Z,1.40
2023-02-11T21:24:30.841Z,1.30
2023-02-11T21:26:59.058Z,1.30
2023-02-11T21:29:27.253Z,1.30
2023-02-11T21:31:56.912Z,1.30
2023-02-11T21:34:25.169Z,1.20
2023-02-11T21:36:53.688Z,1.10
2023-02-11T21:39:21.951Z,1.10
2023-02-11T21:41:51.632Z,1.10
2023-02-11T21:44:20.165Z,1.10
2023-02-11T21:46:48.419Z,1.10
2023-02-11T21:49:19.786Z,1.10
2023-02-11T21:51:48.007Z,1.20
2023-02-11T21:54:18.743Z,1.20
2023-02-11T21:56:46.932Z,1.20
2023-02-11T21:59:16.539Z,1.00
2023-02-11T22:01:47.118Z,1.00
2023-02-11T22:04:15.267Z,1.00
2023-02-11T22:06:44.963Z,1.10
2023-02-11T22:09:13.118Z,1.20
2023-02-11T22:11:41.349Z,1.10
2023-02-11T22:14:09.577Z,1.10
2023-02-11T22:16:37.932Z,1.20
2023-02-11T22:19:07.562Z,1.10
2023-02-11T22:21:35.835Z,1.10
2023-02-11T22:24:05.827Z,1.00
2023-02-11T22:26:34.027Z,0.90
2023-02-11T22:29:02.186Z,1.00
2023-02-11T22:31:33.411Z,0.90
2023-02-11T22:34:04.627Z,0.90
2023-02-11T22:36:34.602Z,0.80
2023-02-11T22:39:05.162Z,0.80
2023-02-11T22:41:33.460Z,0.80
2023-02-11T22:44:01.683Z,0.70
2023-02-11T22:46:29.905Z,0.70
2023-02-11T22:48:58.104Z,0.70
2023-02-11T22:51:28.063Z,0.60
2023-02-11T22:53:57.880Z,0.50
2023-02-11T22:56:28.321Z,0.50
2023-02-11T22:58:58.382Z,0.60
2023-02-11T23:01:26.636Z,0.60
2023-02-11T23:03:54.846Z,0.50
2023-02-11T23:06:23.171Z,0.50
2023-02-11T23:08:51.503Z,0.60
2023-02-11T23:11:22.066Z,0.70
2023-02-11T23:13:53.316Z,0.60
2023-02-11T23:16:23.843Z,0.60
2023-02-11T23:18:53.077Z,0.60
2023-02-11T23:21:24.044Z,0.60
2023-02-11T23:23:56.716Z,0.50
2023-02-11T23:26:27.677Z,0.50
2023-02-11T23:29:00.374Z,0.40
2023-02-11T23:31:35.036Z,0.40
2023-02-11T23:34:03.514Z,0.40
2023-02-11T23:36:37.248Z,0.30
2023-02-11T23:39:08.372Z,0.30
2023-02-11T23:41:36.511Z,0.20
2023-02-11T23:44:09.560Z,0.30
2023-02-11T23:46:40.040Z,0.30
2023-02-11T23:49:08.187Z,0.30
2023-02-11T23:51:38.722Z,0.30
2023-02-11T23:54:16.918Z,0.30
2023-02-11T23:56:46.114Z,0.30
2023-02-11T23:59:18.673Z,0.30
